createdAt,value
2023-05-12T00:01:27.213Z,7.45
2023-05-12T00:03:54.040Z,6.97
2023-05-12T00:06:20.922Z,6.63
2023-05-12T00:08:47.374Z,7.05
2023-05-12T00:11:14.114Z,6.75
2023-05-12T00:13:40.864Z,6.20
2023-05-12T00:16:07.483Z,5.63
2023-05-12T00:18:33.988Z,5.55
2023-05-12T00:21:00.491Z,4.60
2023-05-12T00:23:26.960Z,4.70
2023-05-12T00:25:53.406Z,5.28
2023-05-12T00:28:20.404Z,4.88
2023-05-12T00:30:46.941Z,4.72
2023-05-12T00:33:13.804Z,5.00
2023-05-12T00:35:40.277Z,4.60
2023-05-12T00:38:06.891Z,4.45
2023-05-12T00:40:33.344Z,4.50
2023-05-12T00:42:59.988Z,4.40
2023-05-12T00:45:26.688Z,4.80
2023-05-12T00:47:53.571Z,5.07
2023-05-12T00:50:21.396Z,5.15
2023-05-12T00:52:49.059Z,5.63
2023-05-12T00:55:15.670Z,5.45
2023-05-12T00:57:43.433Z,5.22
2023-05-12T01:00:11.777Z,5.55
2023-05-12T01:02:39.900Z,5.50
2023-05-12T01:05:06.701Z,5.38
2023-05-12T01:07:33.700Z,5.43
2023-05-12T01:10:00.908Z,4.70
2023-05-12T01:12:32.217Z,5.00
2023-05-12T01:14:59.403Z,5.07
2023-05-12T01:17:32.674Z,5.47
2023-05-12T01:20:00.859Z,6.00
2023-05-12T01:22:31.182Z,6.15
2023-05-12T01:25:01.824Z,6.20
2023-05-12T01:27:30.336Z,6.38
2023-05-12T01:30:05.124Z,6.40
2023-05-12T01:32:35.025Z,6.40
2023-05-12T01:35:02.277Z,6.28
2023-05-12T01:37:30.905Z,5.70
2023-05-12T01:39:58.652Z,5.65
2023-05-12T01:42:25.710Z,5.43
2023-05-12T01:44:52.195Z,5.10
2023-05-12T01:47:20.850Z,6.10
2023-05-12T01:49:55.683Z,5.97
2023-05-12T01:52:22.124Z,5.80
2023-05-12T01:54:48.589Z,5.85
2023-05-12T01:57:15.147Z,6.30
2023-05-12T01:59:42.479Z,6.07
2023-05-12T02:02:09.095Z,5.57
2023-05-12T02:04:35.684Z,5.50
2023-05-12T02:07:02.212Z,6.60
2023-05-12T02:09:29.278Z,5.75
2023-05-12T02:12:00.836Z,5.90
2023-05-12T02:14:27.846Z,6.05
2023-05-12T02:16:55.613Z,6.45
2023-05-12T02:19:23.995Z,5.80
2023-05-12T02:21:50.532Z,6.55
2023-05-12T02:24:17.166Z,6.05
2023-05-12T02:26:44.524Z,6.25
2023-05-12T02:29:12.534Z,6.43
2023-05-12T02:31:39.130Z,5.80
2023-05-12T02:34:15.150Z,6.80
2023-05-12T02:36:41.677Z,6.30
2023-05-12T02:39:08.140Z,6.57
2023-05-12T02:41:35.609Z,6.60
2023-05-12T02:44:02.181Z,7.97
2023-05-12T02:46:28.685Z,8.32
2023-05-12T02:48:55.783Z,8.00
2023-05-12T02:51:22.246Z,8.90
2023-05-12T02:53:48.863Z,8.70
2023-05-12T02:56:16.200Z,8.93
2023-05-12T02:58:42.736Z,8.93
2023-05-12T03:01:11.325Z,8.70
2023-05-12T03:03:39.279Z,8.63
2023-05-12T03:06:06.513Z,9.45
2023-05-12T03:08:33.250Z,9.50
2023-05-12T03:10:59.877Z,8.93
2023-05-12T03:13:26.374Z,10.05
2023-05-12T03:15:52.850Z,9.65
2023-05-12T03:18:19.489Z,9.55
2023-05-12T03:20:46.016Z,10.15
2023-05-12T03:23:12.520Z,10.15
2023-05-12T03:25:38.985Z,9.88
2023-05-12T03:28:05.896Z,9.52
2023-05-12T03:30:33.243Z,9.40
2023-05-12T03:32:59.976Z,9.52
2023-05-12T03:35:27.575Z,10.40
2023-05-12T03:37:54.062Z,10.10
2023-05-12T03:40:20.822Z,10.32
2023-05-12T03:42:47.629Z,10.15
2023-05-12T03:45:14.239Z,10.98
2023-05-12T03:47:41.103Z,9.70
2023-05-12T03:50:08.588Z,10.55
2023-05-12T03:52:38.235Z,10.23
2023-05-12T03:55:06.378Z,10.18
2023-05-12T03:57:34.280Z,9.60
2023-05-12T04:00:00.973Z,9.93
2023-05-12T04:02:28.069Z,10.75
2023-05-12T04:04:54.628Z,10.05
2023-05-12T04:07:21.627Z,9.88
2023-05-12T04:09:48.088Z,9.77
2023-05-12T04:12:14.621Z,9.43
2023-05-12T04:14:43.187Z,9.55
2023-05-12T04:17:10.572Z,9.65
2023-05-12T04:19:37.018Z,8.80
2023-05-12T04:22:03.663Z,9.13
2023-05-12T04:24:31.190Z,8.98
2023-05-12T04:26:57.853Z,8.70
2023-05-12T04:29:24.479Z,8.50
2023-05-12T04:31:51.082Z,7.50
2023-05-12T04:34:17.618Z,7.78
2023-05-12T04:36:44.077Z,6.95
2023-05-12T04:39:10.808Z,7.40
2023-05-12T04:41:37.305Z,7.07
2023-05-12T04:44:04.752Z,7.55
2023-05-12T04:46:32.602Z,6.68
2023-05-12T04:48:59.970Z,7.45
2023-05-12T04:51:26.590Z,6.82
2023-05-12T04:53:53.105Z,7.40
2023-05-12T04:56:22.103Z,6.90
2023-05-12T04:58:48.716Z,6.78
2023-05-12T05:01:16.188Z,6.70
2023-05-12T05:03:43.906Z,6.53
2023-05-12T05:06:11.303Z,6.63
2023-05-12T05:08:37.786Z,6.70
2023-05-12T05:11:04.362Z,6.78
2023-05-12T05:13:31.586Z,6.75
2023-05-12T05:15:58.125Z,6.60
2023-05-12T05:18:25.377Z,6.32
2023-05-12T05:20:57.162Z,6.57
2023-05-12T05:23:24.756Z,6.00
2023-05-12T05:25:51.522Z,6.57
2023-05-12T05:28:18.043Z,6.97
2023-05-12T05:30:44.614Z,6.45
2023-05-12T05:33:13.600Z,6.90
2023-05-12T05:35:40.516Z,6.57
2023-05-12T05:38:07.084Z,6.03
2023-05-12T05:40:44.826Z,6.22
2023-05-12T05:43:15.761Z,6.60
2023-05-12T05:45:42.338Z,7.03
2023-05-12T05:48:09.117Z,6.32
2023-05-12T05:50:35.697Z,5.90
2023-05-12T05:53:02.189Z,6.68
2023-05-12T05:55:28.651Z,6.45
2023-05-12T05:57:56.171Z,6.25
2023-05-12T06:00:22.849Z,6.53
2023-05-12T06:02:51.539Z,7.28
2023-05-12T06:05:20.552Z,6.32
2023-05-12T06:07:47.597Z,6.47
2023-05-12T06:10:14.151Z,6.38
2023-05-12T06:12:41.141Z,5.68
2023-05-12T06:15:08.421Z,6.20
2023-05-12T06:17:35.017Z,5.93
2023-05-12T06:20:02.684Z,6.05
2023-05-12T06:22:29.189Z,6.00
2023-05-12T06:24:55.669Z,6.47
2023-05-12T06:27:22.252Z,6.28
2023-05-12T06:29:49.084Z,6.80
2023-05-12T06:32:15.628Z,6.35
2023-05-12T06:34:42.855Z,6.82
2023-05-12T06:37:09.315Z,5.90
2023-05-12T06:39:35.856Z,6.18
2023-05-12T06:42:02.352Z,6.60
2023-05-12T06:44:41.765Z,6.38
2023-05-12T06:47:08.901Z,5.78
2023-05-12T06:49:37.027Z,6.25
2023-05-12T06:52:04.882Z,6.57
2023-05-12T06:54:31.637Z,6.45
2023-05-12T06:56:58.508Z,6.60
2023-05-12T06:59:25.187Z,6.60
2023-05-12T07:01:51.767Z,6.57
2023-05-12T07:04:18.317Z,7.15
2023-05-12T07:06:44.784Z,6.50
2023-05-12T07:09:11.402Z,6.45
2023-05-12T07:11:37.902Z,6.30
2023-05-12T07:14:04.382Z,6.22
2023-05-12T07:16:30.927Z,6.25
2023-05-12T07:18:57.426Z,6.05
2023-05-12T07:21:24.462Z,6.57
2023-05-12T07:23:50.905Z,6.32
2023-05-12T07:26:18.605Z,6.93
2023-05-12T07:28:45.086Z,6.07
2023-05-12T07:31:11.667Z,5.88
2023-05-12T07:33:38.300Z,6.57
2023-05-12T07:36:04.918Z,6.50
2023-05-12T07:38:32.034Z,5.72
2023-05-12T07:41:00.544Z,6.00
2023-05-12T07:43:27.128Z,5.88
2023-05-12T07:45:54.777Z,6.63
2023-05-12T07:48:21.256Z,6.20
2023-05-12T07:50:47.727Z,6.40
2023-05-12T07:53:14.214Z,6.35
2023-05-12T07:55:41.223Z,6.18
2023-05-12T07:58:07.690Z,5.75
2023-05-12T08:00:34.463Z,6.43
2023-05-12T08:03:01.191Z,6.68
2023-05-12T08:05:27.880Z,6.70
2023-05-12T08:07:54.401Z,6.55
2023-05-12T08:10:20.873Z,6.07
2023-05-12T08:12:47.315Z,6.05
2023-05-12T08:15:13.820Z,6.28
2023-05-12T08:17:40.340Z,6.18
2023-05-12T08:20:07.334Z,6.57
2023-05-12T08:22:33.854Z,6.40
2023-05-12T08:25:00.470Z,5.80
2023-05-12T08:27:27.002Z,5.22
2023-05-12T08:29:53.513Z,5.50
2023-05-12T08:32:20.078Z,5.28
2023-05-12T08:34:46.717Z,5.38
2023-05-12T08:37:13.306Z,4.70
2023-05-12T08:39:39.883Z,4.57
2023-05-12T08:42:22.515Z,4.75
2023-05-12T08:44:49.324Z,4.60
2023-05-12T08:47:18.686Z,4.72
2023-05-12T08:49:45.344Z,4.50
2023-05-12T08:52:12.373Z,4.15
2023-05-12T08:54:48.587Z,4.53
2023-05-12T08:57:19.777Z,4.40
2023-05-12T08:59:47.214Z,4.30
2023-05-12T09:02:13.952Z,3.78
2023-05-12T09:04:41.088Z,3.60
2023-05-12T09:07:07.557Z,3.63
2023-05-12T09:09:36.099Z,3.40
2023-05-12T09:12:03.250Z,4.00
2023-05-12T09:14:31.356Z,3.40
2023-05-12T09:17:04.595Z,3.15
2023-05-12T09:19:31.545Z,3.72
2023-05-12T09:21:58.682Z,2.80
2023-05-12T09:24:36.334Z,2.90
2023-05-12T09:27:03.829Z,2.97
2023-05-12T09:29:37.321Z,2.95
2023-05-12T09:32:08.945Z,3.00
2023-05-12T09:34:38.249Z,2.83
2023-05-12T09:37:06.428Z,2.90
2023-05-12T09:39:33.522Z,2.70
2023-05-12T09:42:00.004Z,2.85
2023-05-12T09:44:28.881Z,2.50
2023-05-12T09:46:55.351Z,2.90
2023-05-12T09:49:24.966Z,3.00
2023-05-12T09:51:53.335Z,3.00
2023-05-12T09:54:26.646Z,3.10
2023-05-12T09:59:21.145Z,2.70
2023-05-12T10:01:48.078Z,2.60
2023-05-12T10:04:14.708Z,3.30
2023-05-12T10:06:42.900Z,2.83
2023-05-12T10:09:16.391Z,2.83
2023-05-12T10:11:43.258Z,2.33
2023-05-12T10:14:10.007Z,2.70
2023-05-12T10:16:36.725Z,2.70
2023-05-12T10:19:04.520Z,2.65
2023-05-12T10:21:31.669Z,2.65
2023-05-12T10:23:58.949Z,2.63
2023-05-12T10:26:25.897Z,2.58
2023-05-12T10:28:52.883Z,2.65
2023-05-12T10:31:19.901Z,2.88
2023-05-12T10:33:59.642Z,2.65
2023-05-12T10:36:26.370Z,2.50
2023-05-12T10:38:53.448Z,2.35
2023-05-12T10:41:33.463Z,2.25
2023-05-12T10:44:00.432Z,3.22
2023-05-12T10:46:27.586Z,2.30
2023-05-12T10:48:58.951Z,2.80
2023-05-12T10:51:33.237Z,2.65
2023-05-12T10:54:02.135Z,2.40
2023-05-12T10:56:31.061Z,2.50
2023-05-12T10:59:15.036Z,2.70
2023-05-12T11:01:43.571Z,2.83
2023-05-12T11:04:15.415Z,2.92
2023-05-12T11:06:44.464Z,2.95
2023-05-12T11:09:13.302Z,3.30
2023-05-12T11:11:40.547Z,2.88
2023-05-12T11:14:07.885Z,2.90
2023-05-12T11:16:34.397Z,3.17
2023-05-12T11:19:05.150Z,2.80
2023-05-12T11:21:32.594Z,2.80
2023-05-12T11:24:00.265Z,2.58
2023-05-12T11:26:27.424Z,3.00
2023-05-12T11:28:54.655Z,2.72
2023-05-12T11:31:21.944Z,2.72
2023-05-12T11:33:51.851Z,2.70
2023-05-12T11:36:25.103Z,3.30
2023-05-12T11:38:51.600Z,2.90
2023-05-12T11:41:24.942Z,2.58
2023-05-12T11:46:25.471Z,2.83
2023-05-12T11:48:59.464Z,2.90
2023-05-12T11:51:27.855Z,2.92
2023-05-12T11:53:54.690Z,2.65
2023-05-12T11:56:23.434Z,2.30
2023-05-12T11:58:54.800Z,2.67
2023-05-12T12:01:21.324Z,2.47
2023-05-12T12:03:49.002Z,2.55
2023-05-12T12:06:16.179Z,2.75
2023-05-12T12:08:56.634Z,2.70
2023-05-12T12:11:26.723Z,2.65
2023-05-12T12:13:57.317Z,2.40
2023-05-12T12:16:25.693Z,2.63
2023-05-12T12:18:52.618Z,2.55
2023-05-12T12:21:19.503Z,2.20
2023-05-12T12:23:51.194Z,2.40
2023-05-12T12:26:21.478Z,2.55
2023-05-12T12:28:48.143Z,2.38
2023-05-12T12:31:15.235Z,2.22
2023-05-12T12:33:42.548Z,2.20
2023-05-12T12:36:09.244Z,2.30
2023-05-12T12:38:35.736Z,2.50
2023-05-12T12:41:02.206Z,2.70
2023-05-12T12:43:28.845Z,2.42
2023-05-12T12:45:55.320Z,2.30
2023-05-12T12:48:21.851Z,2.22
2023-05-12T12:50:48.359Z,2.55
2023-05-12T12:53:14.824Z,2.30
2023-05-12T12:55:41.480Z,2.30
2023-05-12T12:58:08.115Z,2.47
2023-05-12T13:00:34.702Z,2.33
2023-05-12T13:03:01.556Z,2.70
2023-05-12T13:05:28.218Z,2.40
2023-05-12T13:07:55.505Z,2.30
2023-05-12T13:10:21.973Z,2.38
2023-05-12T13:12:48.519Z,2.20
2023-05-12T13:15:15.029Z,2.35
2023-05-12T13:17:41.562Z,2.75
2023-05-12T13:20:09.062Z,2.67
2023-05-12T13:22:35.883Z,2.72
2023-05-12T13:25:03.251Z,3.10
2023-05-12T13:27:30.884Z,2.55
2023-05-12T13:29:57.523Z,2.55
2023-05-12T13:32:23.995Z,2.67
2023-05-12T13:34:50.532Z,2.80
2023-05-12T13:37:17.188Z,2.55
2023-05-12T13:39:43.619Z,2.30
2023-05-12T13:42:10.104Z,2.78
2023-05-12T13:44:36.582Z,2.40
2023-05-12T13:47:03.186Z,2.70
2023-05-12T13:49:29.641Z,2.60
2023-05-12T13:51:56.167Z,3.05
2023-05-12T13:54:23.939Z,2.58
2023-05-12T13:56:50.546Z,3.28
2023-05-12T13:59:16.982Z,2.72
2023-05-12T14:01:44.358Z,2.53
2023-05-12T14:04:11.720Z,2.58
2023-05-12T14:06:38.631Z,2.22
2023-05-12T14:09:07.744Z,3.17
2023-05-12T14:11:34.534Z,2.90
2023-05-12T14:14:01.360Z,2.88
2023-05-12T14:16:27.849Z,2.70
2023-05-12T14:18:55.498Z,2.70
2023-05-12T14:21:22.389Z,3.00
2023-05-12T14:23:51.106Z,2.30
2023-05-12T14:26:17.967Z,2.90
2023-05-12T14:28:44.488Z,2.70
2023-05-12T14:31:11.676Z,2.80
2023-05-12T14:33:38.151Z,2.97
2023-05-12T14:36:08.160Z,2.60
2023-05-12T14:38:35.772Z,2.83
2023-05-12T14:41:02.341Z,2.40
2023-05-12T14:43:28.784Z,3.25
2023-05-12T14:45:55.349Z,2.83
2023-05-12T14:48:23.236Z,2.40
2023-05-12T14:50:53.595Z,2.42
2023-05-12T14:53:20.453Z,2.70
2023-05-12T14:55:48.549Z,2.38
2023-05-12T14:58:15.093Z,2.78
2023-05-12T15:00:41.564Z,3.00
2023-05-12T15:03:08.117Z,2.78
2023-05-12T15:05:52.719Z,2.60
2023-05-12T15:08:21.718Z,2.60
2023-05-12T15:10:48.555Z,2.80
2023-05-12T15:13:17.673Z,2.60
2023-05-12T15:15:44.180Z,2.55
2023-05-12T15:18:10.730Z,2.92
2023-05-12T15:20:38.225Z,2.88
2023-05-12T15:23:05.233Z,2.78
2023-05-12T15:25:32.147Z,2.90
2023-05-12T15:27:58.631Z,3.03
2023-05-12T15:30:25.233Z,2.90
2023-05-12T15:32:51.682Z,3.00
2023-05-12T15:35:18.388Z,3.45
2023-05-12T15:37:44.941Z,2.70
2023-05-12T15:40:13.044Z,3.00
2023-05-12T15:42:39.996Z,2.97
2023-05-12T15:45:07.340Z,2.88
2023-05-12T15:47:34.094Z,2.88
2023-05-12T15:50:00.637Z,3.00
2023-05-12T15:52:27.790Z,2.88
2023-05-12T15:54:54.388Z,2.95
2023-05-12T15:57:20.966Z,2.70
2023-05-12T15:59:47.571Z,3.00
2023-05-12T16:02:14.149Z,2.65
2023-05-12T16:04:40.805Z,2.72
2023-05-12T16:07:07.271Z,3.10
2023-05-12T16:09:33.817Z,3.10
2023-05-12T16:12:00.464Z,3.30
2023-05-12T16:14:26.972Z,2.80
2023-05-12T16:16:53.612Z,3.05
2023-05-12T16:19:20.151Z,2.90
2023-05-12T16:21:46.616Z,3.10
2023-05-12T16:24:13.096Z,3.10
2023-05-12T16:26:40.803Z,3.30
2023-05-12T16:29:07.400Z,2.83
2023-05-12T16:31:33.935Z,3.10
2023-05-12T16:34:03.032Z,2.78
2023-05-12T16:36:31.871Z,2.50
2023-05-12T16:38:59.633Z,2.75
2023-05-12T16:41:28.582Z,2.72
2023-05-12T16:43:55.484Z,2.75
2023-05-12T16:46:22.288Z,3.15
2023-05-12T16:48:48.860Z,2.97
2023-05-12T16:51:15.401Z,3.00
2023-05-12T16:53:42.098Z,2.80
2023-05-12T16:56:08.886Z,2.58
2023-05-12T16:58:35.610Z,3.00
2023-05-12T17:01:02.498Z,2.72
2023-05-12T17:03:29.433Z,3.03
2023-05-12T17:05:56.285Z,2.70
2023-05-12T17:08:22.912Z,3.10
2023-05-12T17:10:49.435Z,2.90
2023-05-12T17:13:16.922Z,3.10
2023-05-12T17:15:43.718Z,2.88
2023-05-12T17:18:10.303Z,4.45
2023-05-12T17:20:36.998Z,3.10
2023-05-12T17:23:03.443Z,3.47
2023-05-12T17:25:31.278Z,2.92
2023-05-12T17:27:58.164Z,2.92
2023-05-12T17:30:24.608Z,2.72
2023-05-12T17:32:51.147Z,3.22
2023-05-12T17:35:18.326Z,3.15
2023-05-12T17:37:44.874Z,3.15
2023-05-12T17:40:16.377Z,3.22
2023-05-12T17:42:43.036Z,3.10
2023-05-12T17:45:09.813Z,3.20
2023-05-12T17:47:36.422Z,3.22
2023-05-12T17:50:03.543Z,3.40
2023-05-12T17:52:30.049Z,3.75
2023-05-12T17:54:57.218Z,3.45
2023-05-12T17:57:24.039Z,3.90
2023-05-12T17:59:50.634Z,3.30
2023-05-12T18:02:17.291Z,3.38
2023-05-12T18:04:43.756Z,4.20
2023-05-12T18:07:10.384Z,3.55
2023-05-12T18:09:36.901Z,3.60
2023-05-12T18:12:03.493Z,3.63
2023-05-12T18:14:30.565Z,3.90
2023-05-12T18:16:57.205Z,12.02
2023-05-12T18:19:23.873Z,20.73
2023-05-12T18:21:53.535Z,11.57
2023-05-12T18:24:20.251Z,5.60
2023-05-12T18:26:47.326Z,5.07
2023-05-12T18:29:13.801Z,4.97
2023-05-12T18:31:41.604Z,4.70
2023-05-12T18:34:08.171Z,4.47
2023-05-12T18:36:34.658Z,4.60
2023-05-12T18:39:01.076Z,4.85
2023-05-12T18:41:27.755Z,4.75
2023-05-12T18:43:54.446Z,4.45
2023-05-12T18:46:21.063Z,3.78
2023-05-12T18:48:47.531Z,3.85
2023-05-12T18:51:14.012Z,3.92
2023-05-12T18:53:40.786Z,4.07
2023-05-12T18:56:07.374Z,4.05
2023-05-12T18:58:33.844Z,4.50
2023-05-12T19:01:00.462Z,4.10
2023-05-12T19:03:27.248Z,4.78
2023-05-12T19:05:53.879Z,4.50
2023-05-12T19:08:21.093Z,4.30
2023-05-12T19:10:47.915Z,4.15
2023-05-12T19:13:14.365Z,5.15
2023-05-12T19:15:40.831Z,6.50
2023-05-12T19:18:07.563Z,5.15
2023-05-12T19:20:34.024Z,4.50
2023-05-12T19:23:00.498Z,4.20
2023-05-12T19:25:26.974Z,4.60
2023-05-12T19:27:53.456Z,5.60
2023-05-12T19:30:20.235Z,7.35
2023-05-12T19:32:47.015Z,5.43
2023-05-12T19:35:14.320Z,5.03
2023-05-12T19:37:40.822Z,14.48
2023-05-12T19:40:07.748Z,13.82
2023-05-12T19:42:36.089Z,6.32
2023-05-12T19:45:02.635Z,4.50
2023-05-12T19:47:29.943Z,4.68
2023-05-12T19:49:56.987Z,4.63
2023-05-12T19:52:26.421Z,4.80
2023-05-12T19:54:53.259Z,5.40
2023-05-12T19:57:19.891Z,4.70
2023-05-12T19:59:46.516Z,4.22
2023-05-12T20:02:14.763Z,4.57
2023-05-12T20:04:41.301Z,4.53
2023-05-12T20:07:07.776Z,4.80
2023-05-12T20:09:34.253Z,5.22
2023-05-12T20:12:00.747Z,4.53
2023-05-12T20:14:27.173Z,4.60
2023-05-12T20:16:55.288Z,4.70
2023-05-12T20:19:21.809Z,4.80
2023-05-12T20:21:48.244Z,4.68
2023-05-12T20:24:14.718Z,4.45
2023-05-12T20:26:41.211Z,4.40
2023-05-12T20:29:07.699Z,5.28
2023-05-12T20:31:34.236Z,4.72
2023-05-12T20:34:01.242Z,4.53
2023-05-12T20:36:27.684Z,4.75
2023-05-12T20:38:54.359Z,4.95
2023-05-12T20:41:20.839Z,4.97
2023-05-12T20:43:47.704Z,4.60
2023-05-12T20:46:14.255Z,5.00
2023-05-12T20:48:40.779Z,4.55
2023-05-12T20:51:13.353Z,4.70
2023-05-12T20:53:39.881Z,4.90
2023-05-12T20:56:07.783Z,4.15
2023-05-12T20:58:34.958Z,5.15
2023-05-12T21:01:01.858Z,4.65
2023-05-12T21:03:28.391Z,4.88
2023-05-12T21:05:54.925Z,4.55
2023-05-12T21:08:21.362Z,4.63
2023-05-12T21:10:48.622Z,4.43
2023-05-12T21:13:15.283Z,5.55
2023-05-12T21:15:41.841Z,4.78
2023-05-12T21:18:09.004Z,4.78
2023-05-12T21:20:35.708Z,8.13
2023-05-12T21:23:02.317Z,4.95
2023-05-12T21:25:28.771Z,4.75
2023-05-12T21:27:55.221Z,4.78
2023-05-12T21:30:22.032Z,5.07
2023-05-12T21:32:48.710Z,5.10
2023-05-12T21:35:15.179Z,4.88
2023-05-12T21:37:41.687Z,4.60
2023-05-12T21:40:08.741Z,4.70
2023-05-12T21:42:35.543Z,4.95
2023-05-12T21:45:02.076Z,5.35
2023-05-12T21:47:28.618Z,4.75
2023-05-12T21:49:55.569Z,5.25
2023-05-12T21:52:22.462Z,4.97
2023-05-12T21:54:49.272Z,5.00
2023-05-12T21:57:15.766Z,4.97
2023-05-12T21:59:42.216Z,5.10
2023-05-12T22:02:08.725Z,5.20
2023-05-12T22:04:35.193Z,5.20
2023-05-12T22:07:01.865Z,5.43
2023-05-12T22:09:30.365Z,4.78
2023-05-12T22:11:57.883Z,5.32
2023-05-12T22:14:24.477Z,5.30
2023-05-12T22:16:51.074Z,5.45
2023-05-12T22:19:17.517Z,4.75
2023-05-12T22:21:44.038Z,5.65
2023-05-12T22:24:11.093Z,5.75
2023-05-12T22:26:37.553Z,5.70
2023-05-12T22:29:04.017Z,5.85
2023-05-12T22:31:30.562Z,5.93
2023-05-12T22:33:57.126Z,6.10
2023-05-12T22:36:23.584Z,6.30
2023-05-12T22:38:50.025Z,6.15
2023-05-12T22:41:16.525Z,6.47
2023-05-12T22:43:42.978Z,6.43
2023-05-12T22:46:09.664Z,6.63
2023-05-12T22:48:39.477Z,6.80
2023-05-12T22:51:06.437Z,7.03
2023-05-12T22:53:32.877Z,7.55
2023-05-12T22:55:59.302Z,7.43
2023-05-12T22:58:25.760Z,7.50
2023-05-12T23:00:52.403Z,7.65
2023-05-12T23:03:18.944Z,7.72
2023-05-12T23:05:45.750Z,6.88
2023-05-12T23:08:12.192Z,7.57
2023-05-12T23:10:38.652Z,7.07
2023-05-12T23:13:05.169Z,6.78
2023-05-12T23:15:31.614Z,7.07
2023-05-12T23:17:58.101Z,7.35
2023-05-12T23:20:24.638Z,7.28
2023-05-12T23:22:51.169Z,7.03
2023-05-12T23:25:17.709Z,7.10
2023-05-12T23:27:44.168Z,6.78
2023-05-12T23:30:10.872Z,7.65
2023-05-12T23:32:37.476Z,7.50
2023-05-12T23:35:04.244Z,7.05
2023-05-12T23:37:30.905Z,7.43
2023-05-12T23:39:57.355Z,7.05
2023-05-12T23:42:23.824Z,6.93
2023-05-12T23:44:50.267Z,7.32
2023-05-12T23:47:16.999Z,7.85
2023-05-12T23:49:43.458Z,7.40
2023-05-12T23:52:09.895Z,7.38
2023-05-12T23:54:36.378Z,7.70
2023-05-12T23:57:03.119Z,7.55
2023-05-12T23:59:30.753Z,7.40
